createdAt,value
2019-04-03T00:00:24.684Z,11.43
2019-04-03T00:02:53.209Z,11.37
2019-04-03T00:05:21.773Z,11.31
2019-04-03T00:07:51.745Z,11.24
2019-04-03T00:10:20.345Z,11.18
2019-04-03T00:12:49.120Z,11.13
2019-04-03T00:15:17.730Z,11.09
2019-04-03T00:17:46.386Z,11.04
2019-04-03T00:20:15.074Z,11.01
2019-04-03T00:22:46.126Z,10.98
2019-04-03T00:25:14.290Z,10.96
2019-04-03T00:27:42.835Z,10.94
2019-04-03T00:30:11.937Z,10.93
2019-04-03T00:32:40.616Z,10.92
2019-04-03T00:35:10.036Z,10.90
2019-04-03T00:37:39.150Z,10.88
2019-04-03T00:40:08.188Z,10.86
2019-04-03T00:42:36.756Z,10.83
2019-04-03T00:45:07.326Z,10.79
2019-04-03T00:47:35.843Z,10.76
2019-04-03T00:50:06.258Z,10.73
2019-04-03T00:52:35.372Z,10.69
2019-04-03T00:55:04.405Z,10.64
2019-04-03T00:57:32.924Z,10.61
2019-04-03T01:00:01.901Z,10.58
2019-04-03T01:02:30.572Z,10.54
2019-04-03T01:04:59.177Z,10.48
2019-04-03T01:07:29.293Z,10.43
2019-04-03T01:09:59.540Z,10.37
2019-04-03T01:12:30.384Z,10.30
2019-04-03T01:15:01.085Z,10.24
2019-04-03T01:17:29.277Z,10.20
2019-04-03T01:19:57.975Z,10.18
2019-04-03T01:22:26.923Z,10.18
2019-04-03T01:24:55.423Z,10.19
2019-04-03T01:27:24.136Z,10.24
2019-04-03T01:29:52.684Z,10.29
2019-04-03T01:32:21.192Z,10.33
2019-04-03T01:34:49.709Z,10.36
2019-04-03T01:37:19.357Z,10.41
2019-04-03T01:39:49.026Z,10.45
2019-04-03T01:42:18.303Z,10.50
2019-04-03T01:44:46.863Z,10.53
2019-04-03T01:47:15.550Z,10.58
2019-04-03T01:49:44.155Z,10.61
2019-04-03T01:52:12.712Z,10.62
2019-04-03T01:54:41.352Z,10.62
2019-04-03T01:57:09.986Z,10.62
2019-04-03T01:59:38.929Z,10.60
2019-04-03T02:02:08.510Z,10.59
2019-04-03T02:04:37.486Z,10.59
2019-04-03T02:07:06.344Z,10.60
2019-04-03T02:09:34.874Z,10.60
2019-04-03T02:12:03.570Z,10.58
2019-04-03T02:14:32.379Z,10.57
2019-04-03T02:17:00.875Z,10.53
2019-04-03T02:19:29.482Z,10.48
2019-04-03T02:21:59.131Z,10.42
2019-04-03T02:24:28.038Z,10.37
2019-04-03T02:26:56.633Z,10.31
2019-04-03T02:29:25.556Z,10.26
2019-04-03T02:31:54.056Z,10.20
2019-04-03T02:34:22.635Z,10.15
2019-04-03T02:36:51.588Z,10.09
2019-04-03T02:39:20.086Z,10.02
2019-04-03T02:41:48.704Z,9.97
2019-04-03T02:44:19.133Z,9.91
2019-04-03T02:46:47.899Z,9.86
2019-04-03T02:49:16.489Z,9.80
2019-04-03T02:51:47.231Z,9.74
2019-04-03T02:54:34.679Z,9.70
2019-04-03T02:57:00.964Z,9.69
2019-04-03T02:59:29.739Z,9.69
2019-04-03T03:01:58.605Z,9.68
2019-04-03T03:04:27.230Z,9.69
2019-04-03T03:06:57.041Z,9.68
2019-04-03T03:09:26.486Z,9.68
2019-04-03T03:11:56.992Z,9.67
2019-04-03T03:14:26.453Z,9.65
2019-04-03T03:16:55.606Z,9.62
2019-04-03T03:19:24.477Z,9.58
2019-04-03T03:21:56.043Z,9.55
2019-04-03T03:24:28.453Z,9.52
2019-04-03T03:26:56.071Z,9.47
2019-04-03T03:29:26.954Z,9.44
2019-04-03T03:32:13.203Z,9.41
2019-04-03T03:34:47.601Z,9.38
2019-04-03T03:37:03.138Z,9.34
2019-04-03T03:39:32.578Z,9.30
2019-04-03T03:42:01.875Z,9.27
2019-04-03T03:44:31.182Z,9.26
2019-04-03T03:47:02.835Z,9.22
2019-04-03T03:49:31.852Z,9.21
2019-04-03T03:52:04.009Z,9.19
2019-04-03T03:54:31.844Z,9.16
2019-04-03T03:57:04.330Z,9.15
2019-04-03T03:59:31.842Z,9.15
2019-04-03T04:02:03.511Z,9.18
2019-04-03T04:04:30.950Z,9.20
2019-04-03T04:07:02.188Z,9.23
2019-04-03T04:09:31.027Z,9.24
2019-04-03T04:11:59.919Z,9.27
2019-04-03T04:14:28.688Z,9.30
2019-04-03T04:16:57.930Z,9.30
2019-04-03T04:19:30.520Z,9.33
2019-04-03T04:21:56.933Z,9.33
2019-04-03T04:24:28.000Z,9.33
2019-04-03T04:26:57.042Z,9.34
2019-04-03T04:29:25.557Z,9.32
2019-04-03T04:31:54.750Z,9.31
2019-04-03T04:34:23.642Z,9.30
2019-04-03T04:36:53.304Z,9.27
2019-04-03T04:39:22.729Z,9.26
2019-04-03T04:41:51.470Z,9.24
2019-04-03T04:44:20.211Z,9.22
2019-04-03T04:46:48.773Z,9.21
2019-04-03T04:49:17.270Z,9.19
2019-04-03T04:51:46.050Z,9.17
2019-04-03T04:54:15.029Z,9.17
2019-04-03T04:56:43.560Z,9.15
2019-04-03T04:59:13.528Z,9.13
2019-04-03T05:01:42.522Z,9.10
2019-04-03T05:04:11.367Z,9.09
2019-04-03T05:06:39.896Z,9.08
2019-04-03T05:09:08.589Z,9.08
2019-04-03T05:11:39.099Z,9.07
2019-04-03T05:14:07.366Z,9.07
2019-04-03T05:16:36.764Z,9.06
2019-04-03T05:19:10.662Z,9.09
2019-04-03T05:21:35.685Z,9.10
2019-04-03T05:24:11.383Z,9.14
2019-04-03T05:26:35.217Z,9.14
2019-04-03T05:29:04.712Z,9.16
2019-04-03T05:31:33.820Z,9.21
2019-04-03T05:34:02.591Z,9.25
2019-04-03T05:36:31.114Z,9.26
2019-04-03T05:39:02.604Z,9.30
2019-04-03T05:41:30.514Z,9.33
2019-04-03T05:44:00.085Z,9.37
2019-04-03T05:46:29.462Z,9.41
2019-04-03T05:48:58.317Z,9.47
2019-04-03T05:51:29.138Z,9.50
2019-04-03T05:53:57.677Z,9.54
2019-04-03T05:56:26.442Z,9.59
2019-04-03T05:58:57.251Z,9.63
2019-04-03T06:01:25.530Z,9.68
2019-04-03T06:03:54.279Z,9.73
2019-04-03T06:06:22.805Z,9.77
2019-04-03T06:08:51.985Z,9.82
2019-04-03T06:11:20.909Z,9.88
2019-04-03T06:13:50.003Z,9.94
2019-04-03T06:16:18.718Z,10.01
2019-04-03T06:18:59.132Z,10.06
2019-04-03T06:21:28.605Z,10.12
2019-04-03T06:23:57.241Z,10.19
2019-04-03T06:26:25.753Z,10.26
2019-04-03T06:28:54.693Z,10.33
2019-04-03T06:31:24.350Z,10.40
2019-04-03T06:33:53.594Z,10.45
2019-04-03T06:36:22.143Z,10.50
2019-04-03T06:38:50.666Z,10.57
2019-04-03T06:41:19.471Z,10.62
2019-04-03T06:43:50.155Z,10.65
2019-04-03T06:46:18.410Z,10.70
2019-04-03T06:48:47.098Z,10.75
2019-04-03T06:51:16.759Z,10.79
2019-04-03T06:53:48.160Z,10.83
2019-04-03T06:56:16.686Z,10.87
2019-04-03T06:58:45.546Z,10.90
2019-04-03T07:01:14.215Z,10.96
2019-04-03T07:03:44.180Z,11.00
2019-04-03T07:06:13.710Z,11.05
2019-04-03T07:08:42.219Z,11.11
2019-04-03T07:11:22.404Z,11.18
2019-04-03T07:13:40.992Z,11.26
2019-04-03T07:16:09.510Z,11.33
2019-04-03T07:18:38.078Z,11.41
2019-04-03T07:21:06.631Z,11.49
2019-04-03T07:23:35.138Z,11.57
2019-04-03T07:26:05.173Z,11.68
2019-04-03T07:28:34.134Z,11.78
2019-04-03T07:31:02.678Z,11.84
2019-04-03T07:33:31.223Z,11.90
2019-04-03T07:35:59.894Z,11.97
2019-04-03T07:38:28.868Z,12.04
2019-04-03T07:40:57.618Z,12.11
2019-04-03T07:43:26.929Z,12.17
2019-04-03T07:45:56.165Z,12.25
2019-04-03T07:48:25.048Z,12.35
2019-04-03T07:50:54.017Z,12.43
2019-04-03T07:53:23.077Z,12.54
2019-04-03T07:55:51.950Z,12.66
2019-04-03T07:58:20.946Z,12.75
2019-04-03T08:00:49.661Z,12.79
2019-04-03T08:03:20.368Z,12.84
2019-04-03T08:05:48.798Z,12.85
2019-04-03T08:08:17.773Z,12.85
2019-04-03T08:10:52.878Z,12.83
2019-04-03T08:13:23.299Z,12.86
2019-04-03T08:15:52.349Z,12.86
2019-04-03T08:18:21.900Z,12.87
2019-04-03T08:20:51.059Z,12.86
2019-04-03T08:23:19.883Z,12.84
2019-04-03T08:25:49.207Z,12.80
2019-04-03T08:28:18.194Z,12.76
2019-04-03T08:30:46.809Z,12.70
2019-04-03T08:33:19.797Z,12.59
2019-04-03T08:35:48.157Z,12.54
2019-04-03T08:38:16.757Z,12.52
2019-04-03T08:40:45.348Z,12.48
2019-04-03T08:43:15.592Z,12.47
2019-04-03T08:45:44.529Z,12.48
2019-04-03T08:48:13.081Z,12.50
2019-04-03T08:50:41.891Z,12.56
2019-04-03T08:53:10.876Z,12.61
2019-04-03T08:55:39.698Z,12.65
2019-04-03T08:58:08.356Z,12.68
2019-04-03T09:00:37.144Z,12.73
2019-04-03T09:03:05.926Z,12.74
2019-04-03T09:05:34.608Z,12.77
2019-04-03T09:08:03.211Z,12.82
2019-04-03T09:10:36.363Z,12.88
2019-04-03T09:13:15.455Z,12.95
2019-04-03T09:15:32.945Z,13.06
2019-04-03T09:18:01.762Z,13.15
2019-04-03T09:20:30.308Z,13.23
2019-04-03T09:22:58.856Z,13.34
2019-04-03T09:25:27.595Z,13.42
2019-04-03T09:27:56.315Z,13.52
2019-04-03T09:30:25.990Z,13.63
2019-04-03T09:32:59.007Z,13.61
2019-04-03T09:35:26.132Z,13.56
2019-04-03T09:37:54.774Z,13.47
2019-04-03T09:40:23.706Z,13.42
2019-04-03T09:42:52.289Z,13.38
2019-04-03T09:45:20.811Z,13.34
2019-04-03T09:47:50.636Z,13.30
2019-04-03T09:50:22.320Z,13.28
2019-04-03T09:52:50.760Z,13.24
2019-04-03T09:55:19.750Z,13.18
2019-04-03T09:57:48.348Z,13.13
2019-04-03T10:00:17.486Z,13.13
2019-04-03T10:02:45.989Z,13.15
2019-04-03T10:05:16.313Z,13.12
2019-04-03T10:07:45.353Z,13.04
2019-04-03T10:10:16.533Z,12.92
2019-04-03T10:12:47.325Z,12.77
2019-04-03T10:15:18.150Z,12.62
2019-04-03T10:17:45.734Z,12.49
2019-04-03T10:20:17.297Z,12.36
2019-04-03T10:22:45.336Z,12.22
2019-04-03T10:25:14.358Z,12.11
2019-04-03T10:27:43.706Z,12.01
2019-04-03T10:30:15.741Z,11.95
2019-04-03T10:32:44.636Z,11.89
2019-04-03T10:35:13.697Z,11.82
2019-04-03T10:37:42.209Z,11.77
2019-04-03T10:40:12.293Z,11.74
2019-04-03T10:42:42.394Z,11.69
2019-04-03T10:45:11.683Z,11.70
2019-04-03T10:47:43.367Z,11.69
2019-04-03T10:50:12.894Z,11.70
2019-04-03T10:52:44.054Z,11.73
2019-04-03T10:55:11.971Z,11.76
2019-04-03T10:57:42.371Z,11.84
2019-04-03T11:00:13.364Z,11.94
2019-04-03T11:02:42.035Z,12.01
2019-04-03T11:05:12.927Z,12.04
2019-04-03T11:07:41.776Z,12.07
2019-04-03T11:10:12.456Z,12.08
2019-04-03T11:12:41.465Z,12.10
2019-04-03T11:15:11.692Z,12.14
2019-04-03T11:17:43.113Z,12.21
2019-04-03T11:20:13.442Z,12.31
2019-04-03T11:25:15.327Z,12.59
2019-04-03T11:27:45.037Z,12.70
2019-04-03T11:30:18.239Z,12.80
2019-04-03T11:30:55.128Z,12.44
2019-04-03T11:32:46.515Z,12.85
2019-04-03T11:35:15.600Z,12.87
2019-04-03T11:37:44.181Z,12.91
2019-04-03T11:40:14.097Z,12.99
2019-04-03T11:42:42.926Z,13.13
2019-04-03T11:45:12.214Z,13.23
2019-04-03T11:47:40.867Z,13.31
2019-04-03T11:50:11.088Z,13.36
2019-04-03T11:52:39.984Z,13.39
2019-04-03T11:55:10.895Z,13.46
2019-04-03T11:57:39.909Z,13.53
2019-04-03T12:00:18.871Z,13.55
2019-04-03T12:02:47.918Z,13.52
2019-04-03T12:05:20.745Z,13.49
2019-04-03T12:07:48.924Z,13.45
2019-04-03T12:10:17.950Z,13.47
2019-04-03T12:12:48.080Z,13.44
2019-04-03T12:15:20.085Z,13.42
2019-04-03T12:17:47.542Z,13.40
2019-04-03T12:20:18.288Z,13.47
2019-04-03T12:22:46.954Z,13.62
2019-04-03T12:25:16.158Z,13.75
2019-04-03T12:27:46.000Z,13.86
2019-04-03T12:30:16.218Z,13.99
2019-04-03T12:32:48.742Z,14.05
2019-04-03T12:35:15.815Z,14.08
2019-04-03T12:37:44.554Z,14.08
2019-04-03T12:40:14.209Z,13.91
2019-04-03T12:42:42.769Z,13.73
2019-04-03T12:45:12.069Z,13.64
2019-04-03T12:47:42.825Z,13.56
2019-04-03T12:50:14.056Z,13.48
2019-04-03T12:52:44.749Z,13.44
2019-04-03T12:55:13.188Z,13.54
2019-04-03T12:57:41.870Z,13.72
2019-04-03T13:00:13.654Z,13.95
2019-04-03T13:02:43.296Z,14.16
2019-04-03T13:05:13.128Z,14.31
2019-04-03T13:07:41.730Z,14.50
2019-04-03T13:10:12.359Z,14.69
2019-04-03T13:12:41.312Z,14.87
2019-04-03T13:15:12.550Z,15.19
2019-04-03T13:17:43.830Z,15.47
2019-04-03T13:20:12.406Z,15.61
2019-04-03T13:22:42.543Z,15.67
2019-04-03T13:25:11.962Z,15.72
2019-04-03T13:27:40.748Z,15.74
2019-04-03T13:30:12.904Z,15.76
2019-04-03T13:32:41.908Z,15.80
2019-04-03T13:35:14.629Z,15.81
2019-04-03T13:37:42.208Z,15.80
2019-04-03T13:40:11.656Z,15.73
2019-04-03T13:42:40.259Z,15.58
2019-04-03T13:45:09.759Z,15.37
2019-04-03T13:47:41.074Z,15.11
2019-04-03T13:50:10.601Z,14.87
2019-04-03T13:52:43.184Z,14.67
2019-04-03T13:55:11.040Z,14.53
2019-04-03T13:57:39.731Z,14.46
2019-04-03T14:00:18.278Z,14.42
2019-04-03T14:02:40.131Z,14.37
2019-04-03T14:05:09.826Z,14.34
2019-04-03T14:07:41.498Z,14.29
2019-04-03T14:10:09.937Z,14.23
2019-04-03T14:12:43.095Z,14.18
2019-04-03T14:15:09.786Z,14.20
2019-04-03T14:17:38.720Z,14.17
2019-04-03T14:20:08.770Z,14.13
2019-04-03T14:22:37.532Z,14.09
2019-04-03T14:25:18.060Z,14.07
2019-04-03T14:27:37.692Z,14.06
2019-04-03T14:30:11.632Z,14.00
2019-04-03T14:32:44.274Z,13.96
2019-04-03T14:35:40.448Z,13.91
2019-04-03T14:37:41.435Z,13.85
2019-04-03T14:40:12.341Z,13.81
2019-04-03T14:42:40.980Z,13.78
2019-04-03T14:45:13.431Z,13.75
2019-04-03T14:47:40.799Z,13.73
2019-04-03T14:50:10.195Z,13.70
2019-04-03T14:52:38.901Z,13.66
2019-04-03T14:55:18.658Z,13.61
2019-04-03T14:57:38.607Z,13.57
2019-04-03T15:00:24.595Z,13.57
2019-04-03T15:02:41.384Z,13.58
2019-04-03T15:05:10.791Z,13.56
2019-04-03T15:07:40.449Z,13.56
2019-04-03T15:10:12.796Z,13.56
2019-04-03T15:12:41.431Z,13.56
2019-04-03T15:15:11.967Z,13.58
2019-04-03T15:17:41.585Z,13.63
2019-04-03T15:20:12.379Z,13.63
2019-04-03T15:22:42.667Z,13.63
2019-04-03T15:25:12.902Z,13.72
2019-04-03T15:27:42.510Z,13.90
2019-04-03T15:30:12.927Z,14.19
2019-04-03T15:32:41.601Z,14.58
2019-04-03T15:35:10.704Z,14.98
2019-04-03T15:37:41.431Z,15.32
2019-04-03T15:40:10.268Z,15.89
2019-04-03T15:42:41.287Z,16.67
2019-04-03T15:45:10.490Z,17.37
2019-04-03T15:47:45.155Z,18.12
2019-04-03T15:50:10.678Z,18.76
2019-04-03T15:55:27.286Z,19.55
2019-04-03T15:58:07.096Z,19.81
2019-04-03T16:00:36.658Z,19.97
2019-04-03T16:03:06.098Z,19.94
2019-04-03T16:05:36.453Z,19.76
2019-04-03T16:08:05.794Z,19.53
2019-04-03T16:10:34.481Z,19.41
2019-04-03T16:13:03.552Z,19.30
2019-04-03T16:15:33.497Z,19.10
2019-04-03T16:18:09.066Z,18.79
2019-04-03T16:20:38.296Z,18.54
2019-04-03T16:23:07.081Z,18.32
2019-04-03T16:25:36.324Z,18.21
2019-04-03T16:28:05.712Z,18.24
2019-04-03T16:30:40.214Z,18.26
2019-04-03T16:33:19.857Z,18.17
2019-04-03T16:35:41.155Z,17.89
2019-04-03T16:38:15.022Z,17.59
2019-04-03T16:40:46.594Z,17.26
2019-04-03T16:43:16.794Z,16.95
2019-04-03T16:45:46.650Z,16.77
2019-04-03T16:48:17.913Z,16.60
2019-04-03T16:50:47.429Z,16.34
2019-04-03T16:53:19.870Z,16.13
2019-04-03T16:55:48.457Z,16.01
2019-04-03T16:58:17.606Z,15.96
2019-04-03T17:00:47.335Z,16.08
2019-04-03T17:03:17.129Z,16.20
2019-04-03T17:05:47.507Z,16.23
2019-04-03T17:08:17.170Z,16.18
2019-04-03T17:10:46.367Z,16.03
2019-04-03T17:13:15.679Z,15.83
2019-04-03T17:15:46.883Z,15.57
2019-04-03T17:18:17.135Z,15.27
2019-04-03T17:20:49.469Z,15.00
2019-04-03T17:23:17.041Z,14.75
2019-04-03T17:25:50.098Z,14.53
2019-04-03T17:28:16.487Z,14.32
2019-04-03T17:30:45.911Z,14.12
2019-04-03T17:33:15.574Z,13.95
2019-04-03T17:35:47.158Z,13.80
2019-04-03T17:38:16.312Z,13.66
2019-04-03T17:40:45.420Z,13.52
2019-04-03T17:43:16.856Z,13.39
2019-04-03T17:45:46.549Z,13.27
2019-04-03T17:48:16.211Z,13.16
2019-04-03T17:50:45.449Z,13.06
2019-04-03T17:53:15.539Z,12.96
2019-04-03T17:55:46.556Z,12.86
2019-04-03T17:58:16.832Z,12.77
2019-04-03T18:00:46.163Z,12.68
2019-04-03T18:03:15.037Z,12.63
2019-04-03T18:05:43.825Z,12.59
2019-04-03T18:08:12.715Z,12.55
2019-04-03T18:10:42.579Z,12.53
2019-04-03T18:13:12.623Z,12.51
2019-04-03T18:15:41.336Z,12.51
2019-04-03T18:18:10.543Z,12.51
2019-04-03T18:20:39.605Z,12.49
2019-04-03T18:23:10.652Z,12.44
2019-04-03T18:25:38.862Z,12.40
2019-04-03T18:28:07.449Z,12.33
2019-04-03T18:30:36.119Z,12.26
2019-04-03T18:33:05.990Z,12.18
2019-04-03T18:35:34.956Z,12.11
2019-04-03T18:38:03.614Z,12.05
2019-04-03T18:40:32.204Z,11.99
2019-04-03T18:43:00.995Z,11.94
2019-04-03T18:45:29.676Z,11.89
2019-04-03T18:47:58.800Z,11.84
2019-04-03T18:50:27.571Z,11.80
2019-04-03T18:52:56.443Z,11.76
2019-04-03T18:55:24.989Z,11.71
2019-04-03T18:57:53.838Z,11.68
2019-04-03T19:00:23.609Z,11.66
2019-04-03T19:02:52.216Z,11.64
2019-04-03T19:05:21.234Z,11.64
2019-04-03T19:07:49.997Z,11.62
2019-04-03T19:10:18.906Z,11.63
2019-04-03T19:12:48.130Z,11.64
2019-04-03T19:15:16.833Z,11.65
2019-04-03T19:17:45.790Z,11.67
2019-04-03T19:20:15.074Z,11.67
2019-04-03T19:22:43.771Z,11.68
2019-04-03T19:25:12.677Z,11.67
2019-04-03T19:27:41.545Z,11.65
2019-04-03T19:30:10.430Z,11.66
2019-04-03T19:32:43.266Z,11.66
2019-04-03T19:35:13.774Z,11.64
2019-04-03T19:37:55.003Z,11.62
2019-04-03T19:40:24.182Z,11.56
2019-04-03T19:42:54.595Z,11.49
2019-04-03T19:45:26.240Z,11.41
2019-04-03T19:47:57.754Z,11.34
2019-04-03T19:50:36.377Z,11.27
2019-04-03T19:53:08.272Z,11.21
2019-04-03T19:55:37.042Z,11.17
2019-04-03T19:58:05.678Z,11.13
2019-04-03T20:00:36.617Z,11.09
2019-04-03T20:03:05.683Z,11.05
2019-04-03T20:05:34.435Z,11.01
2019-04-03T20:08:03.118Z,10.95
2019-04-03T20:10:33.874Z,10.88
2019-04-03T20:13:02.353Z,10.81
2019-04-03T20:15:31.432Z,10.74
2019-04-03T20:17:59.978Z,10.70
2019-04-03T20:20:31.601Z,10.65
2019-04-03T20:22:59.020Z,10.59
2019-04-03T20:25:27.587Z,10.54
2019-04-03T20:27:57.140Z,10.51
2019-04-03T20:30:26.003Z,10.49
2019-04-03T20:32:54.592Z,10.48
2019-04-03T20:35:23.377Z,10.44
2019-04-03T20:37:52.068Z,10.43
2019-04-03T20:40:20.614Z,10.41
2019-04-03T20:42:49.240Z,10.39
2019-04-03T20:45:19.151Z,10.36
2019-04-03T20:47:48.550Z,10.33
2019-04-03T20:50:19.490Z,10.30
2019-04-03T20:52:48.588Z,10.27
2019-04-03T20:55:17.172Z,10.24
2019-04-03T20:57:55.570Z,10.20
2019-04-03T21:00:19.991Z,10.18
2019-04-03T21:02:48.666Z,10.17
2019-04-03T21:05:18.583Z,10.15
2019-04-03T21:07:49.056Z,10.11
2019-04-03T21:10:17.681Z,10.09
2019-04-03T21:12:46.374Z,10.04
2019-04-03T21:15:15.373Z,10.01
2019-04-03T21:17:43.949Z,9.96
2019-04-03T21:20:12.732Z,9.93
2019-04-03T21:22:47.910Z,9.91
2019-04-03T21:25:16.547Z,9.91
2019-04-03T21:27:45.143Z,9.93
2019-04-03T21:30:14.054Z,9.96
2019-04-03T21:32:42.583Z,9.99
2019-04-03T21:35:11.507Z,10.02
2019-04-03T21:37:40.705Z,10.02
2019-04-03T21:40:10.211Z,10.04
2019-04-03T21:42:38.791Z,10.03
2019-04-03T21:45:08.337Z,9.98
2019-04-03T21:47:37.012Z,9.93
2019-04-03T21:50:07.823Z,9.89
2019-04-03T21:52:36.629Z,9.87
2019-04-03T21:55:07.340Z,9.84
2019-04-03T21:57:38.439Z,9.85
2019-04-03T22:00:08.599Z,9.84
2019-04-03T22:02:37.157Z,9.86
2019-04-03T22:05:08.235Z,9.85
2019-04-03T22:07:37.018Z,9.86
2019-04-03T22:10:09.064Z,9.84
2019-04-03T22:12:38.006Z,9.81
2019-04-03T22:15:08.297Z,9.77
2019-04-03T22:17:36.833Z,9.74
2019-04-03T22:20:06.998Z,9.72
2019-04-03T22:22:35.583Z,9.71
2019-04-03T22:25:04.774Z,9.71
2019-04-03T22:27:33.578Z,9.69
2019-04-03T22:30:02.469Z,9.69
2019-04-03T22:32:31.010Z,9.69
2019-04-03T22:35:03.016Z,9.70
2019-04-03T22:37:31.322Z,9.74
2019-04-03T22:39:59.968Z,9.79
2019-04-03T22:42:28.533Z,9.85
2019-04-03T22:44:57.349Z,9.89
2019-04-03T22:47:26.450Z,9.91
2019-04-03T22:49:55.230Z,9.92
2019-04-03T22:52:24.147Z,9.91
2019-04-03T22:54:52.674Z,9.90
2019-04-03T22:57:21.214Z,9.87
2019-04-03T22:59:49.982Z,9.86
2019-04-03T23:02:18.531Z,9.84
2019-04-03T23:04:47.349Z,9.81
2019-04-03T23:07:16.039Z,9.80
2019-04-03T23:09:44.628Z,9.78
2019-04-03T23:12:13.215Z,9.77
2019-04-03T23:14:41.989Z,9.83
2019-04-03T23:17:11.981Z,9.85
2019-04-03T23:19:41.312Z,9.88
2019-04-03T23:22:10.320Z,9.94
2019-04-03T23:24:38.984Z,9.96
2019-04-03T23:27:07.578Z,9.96
2019-04-03T23:29:36.817Z,9.97
2019-04-03T23:32:05.452Z,9.98
2019-04-03T23:34:34.094Z,9.99
2019-04-03T23:37:02.839Z,10.03
2019-04-03T23:39:31.721Z,10.13
2019-04-03T23:42:00.515Z,10.25
2019-04-03T23:44:29.506Z,10.34
2019-04-03T23:46:58.091Z,10.35
2019-04-03T23:49:26.876Z,10.33
2019-04-03T23:51:58.619Z,10.27
2019-04-03T23:54:26.268Z,10.19
2019-04-03T23:56:54.769Z,10.08
2019-04-03T23:59:25.749Z,9.96
